createdAt,value
2022-11-29T00:02:08.974Z,101138.06
2022-11-29T00:04:58.855Z,101142.00
2022-11-29T00:07:35.204Z,101144.02
2022-11-29T00:10:04.460Z,101142.89
2022-11-29T00:12:33.215Z,101144.64
2022-11-29T00:15:02.692Z,101145.44
2022-11-29T00:17:42.759Z,101142.83
2022-11-29T00:20:21.946Z,101142.48
2022-11-29T00:23:07.964Z,101141.47
2022-11-29T00:25:40.542Z,101143.89
2022-11-29T00:28:26.174Z,101146.14
2022-11-29T00:31:05.164Z,101147.76
2022-11-29T00:33:47.417Z,101148.98
2022-11-29T00:36:18.146Z,101147.63
2022-11-29T00:38:52.422Z,101145.26
2022-11-29T00:41:42.593Z,101140.43
2022-11-29T00:44:19.861Z,101136.73
2022-11-29T00:47:04.349Z,101141.04
2022-11-29T00:49:41.169Z,101142.80
2022-11-29T00:52:15.447Z,101139.20
2022-11-29T00:54:49.353Z,101134.43
2022-11-29T00:57:24.146Z,101134.23
2022-11-29T01:00:00.818Z,101134.21
2022-11-29T01:02:34.630Z,101131.04
2022-11-29T01:05:20.234Z,101129.95
2022-11-29T01:07:54.078Z,101127.56
2022-11-29T01:10:33.520Z,101124.19
2022-11-29T01:13:03.843Z,101127.00
2022-11-29T01:15:58.186Z,101127.94
2022-11-29T01:18:31.545Z,101123.02
2022-11-29T01:21:12.294Z,101117.38
2022-11-29T01:23:44.348Z,101113.42
2022-11-29T01:26:19.671Z,101117.06
2022-11-29T01:28:54.020Z,101115.95
2022-11-29T01:31:35.952Z,101112.57
2022-11-29T01:34:07.789Z,101112.64
2022-11-29T01:36:41.154Z,101110.26
2022-11-29T01:39:21.085Z,101105.63
2022-11-29T01:42:02.563Z,101101.23
2022-11-29T01:44:33.439Z,101100.63
2022-11-29T01:47:13.263Z,101097.17
2022-11-29T01:50:00.118Z,101095.96
2022-11-29T01:52:33.327Z,101095.95
2022-11-29T01:55:18.114Z,101091.34
2022-11-29T01:57:47.522Z,101093.98
2022-11-29T02:00:23.190Z,101096.91
2022-11-29T02:02:57.787Z,101091.20
2022-11-29T02:05:37.103Z,101095.83
2022-11-29T02:08:07.380Z,101096.48
2022-11-29T02:10:47.639Z,101099.00
2022-11-29T02:13:36.348Z,101097.68
2022-11-29T02:16:42.369Z,101093.70
2022-11-29T02:19:36.269Z,101098.70
2022-11-29T02:22:19.115Z,101099.48
2022-11-29T02:25:35.945Z,101099.39
2022-11-29T02:28:42.813Z,101100.20
2022-11-29T02:31:36.142Z,101104.00
2022-11-29T02:34:38.940Z,101103.50
2022-11-29T02:37:39.217Z,101106.66
2022-11-29T02:40:29.889Z,101104.63
2022-11-29T02:43:17.397Z,101106.84
2022-11-29T02:46:20.783Z,101108.15
2022-11-29T02:49:17.384Z,101110.16
2022-11-29T02:52:28.733Z,101108.60
2022-11-29T02:55:34.518Z,101112.83
2022-11-29T02:58:32.170Z,101115.06
2022-11-29T03:01:37.894Z,101113.10
2022-11-29T03:04:45.589Z,101116.76
2022-11-29T03:08:01.900Z,101116.60
2022-11-29T03:11:03.303Z,101117.86
2022-11-29T03:14:08.247Z,101118.08
2022-11-29T03:17:00.416Z,101118.45
2022-11-29T03:19:56.184Z,101119.74
2022-11-29T03:22:50.222Z,101121.68
2022-11-29T03:25:40.551Z,101115.63
2022-11-29T03:28:19.690Z,101118.02
2022-11-29T03:31:26.494Z,101119.59
2022-11-29T03:34:27.577Z,101118.45
2022-11-29T03:37:19.734Z,101119.01
2022-11-29T03:44:14.601Z,101120.77
2022-11-29T03:47:23.587Z,101120.89
2022-11-29T03:49:57.952Z,101124.02
2022-11-29T03:52:43.786Z,101121.02
2022-11-29T03:55:22.872Z,101123.43
2022-11-29T03:58:29.649Z,101126.50
2022-11-29T04:01:49.850Z,101128.73
2022-11-29T04:04:53.800Z,101133.73
2022-11-29T04:07:32.471Z,101137.35
2022-11-29T04:11:01.026Z,101138.05
2022-11-29T04:13:41.132Z,101139.94
2022-11-29T04:16:41.412Z,101141.33
2022-11-29T04:20:00.921Z,101144.17
2022-11-29T04:23:03.764Z,101148.73
2022-11-29T04:25:36.439Z,101149.64
2022-11-29T04:28:41.167Z,101152.24
2022-11-29T04:31:37.890Z,101152.38
2022-11-29T04:34:30.020Z,101157.13
2022-11-29T04:37:55.139Z,101157.04
2022-11-29T04:40:36.639Z,101160.91
2022-11-29T04:43:12.368Z,101160.30
2022-11-29T04:46:26.918Z,101159.87
2022-11-29T04:49:24.397Z,101163.77
2022-11-29T04:52:19.154Z,101161.84
2022-11-29T04:55:10.012Z,101163.13
2022-11-29T04:57:52.514Z,101162.48
2022-11-29T05:00:26.906Z,101164.53
2022-11-29T05:02:59.921Z,101167.34
2022-11-29T05:06:21.616Z,101165.48
2022-11-29T05:09:29.726Z,101166.91
2022-11-29T05:12:40.304Z,101169.47
2022-11-29T05:15:33.985Z,101170.89
2022-11-29T05:18:31.957Z,101171.07
2022-11-29T05:21:16.218Z,101171.92
2022-11-29T05:24:20.040Z,101175.91
2022-11-29T05:27:08.058Z,101180.65
2022-11-29T05:29:51.217Z,101179.98
2022-11-29T05:32:36.306Z,101180.77
2022-11-29T05:35:33.423Z,101183.26
2022-11-29T05:38:33.796Z,101188.55
2022-11-29T05:41:44.852Z,101194.52
2022-11-29T05:44:34.390Z,101197.17
2022-11-29T05:47:06.847Z,101197.14
2022-11-29T05:49:51.234Z,101199.13
2022-11-29T05:52:25.061Z,101203.70
2022-11-29T05:55:43.899Z,101204.70
2022-11-29T05:58:30.080Z,101204.97
2022-11-29T06:01:38.618Z,101209.05
2022-11-29T06:04:53.175Z,101210.46
2022-11-29T06:07:31.035Z,101217.02
2022-11-29T06:10:27.341Z,101219.28
2022-11-29T06:13:31.768Z,101221.66
2022-11-29T06:17:10.895Z,101228.58
2022-11-29T06:20:34.135Z,101230.85
2022-11-29T06:23:43.777Z,101231.19
2022-11-29T06:26:30.417Z,101233.70
2022-11-29T06:29:27.362Z,101235.15
2022-11-29T06:32:44.088Z,101236.29
2022-11-29T06:35:35.968Z,101240.02
2022-11-29T06:38:33.887Z,101237.42
2022-11-29T06:41:13.292Z,101243.00
2022-11-29T06:43:44.747Z,101244.17
2022-11-29T06:46:56.908Z,101248.69
2022-11-29T06:50:03.924Z,101246.50
2022-11-29T06:52:45.181Z,101247.94
2022-11-29T06:55:45.294Z,101248.67
2022-11-29T06:58:44.833Z,101249.48
2022-11-29T07:01:53.887Z,101253.38
2022-11-29T07:05:13.611Z,101255.42
2022-11-29T07:08:12.135Z,101256.71
2022-11-29T07:10:55.723Z,101262.98
2022-11-29T07:13:46.531Z,101262.35
2022-11-29T07:16:57.033Z,101262.70
2022-11-29T07:19:54.528Z,101269.51
2022-11-29T07:23:06.620Z,101270.27
2022-11-29T07:26:21.809Z,101271.19
2022-11-29T07:29:35.842Z,101272.92
2022-11-29T07:32:51.375Z,101274.99
2022-11-29T07:35:41.742Z,101275.87
2022-11-29T07:38:48.753Z,101279.45
2022-11-29T07:42:09.872Z,101281.17
2022-11-29T07:45:13.391Z,101283.63
2022-11-29T07:55:51.560Z,101281.90
2022-11-29T07:58:44.740Z,101286.04
2022-11-29T08:01:17.962Z,101277.95
2022-11-29T08:04:28.416Z,101279.52
2022-11-29T08:07:28.857Z,101279.42
2022-11-29T08:10:40.368Z,101278.73
2022-11-29T08:13:24.543Z,101276.86
2022-11-29T08:16:16.804Z,101280.55
2022-11-29T08:19:00.614Z,101283.09
2022-11-29T08:22:06.257Z,101281.70
2022-11-29T08:32:20.353Z,101293.03
2022-11-29T08:35:15.038Z,101286.53
2022-11-29T08:38:12.463Z,101287.17
2022-11-29T08:40:54.928Z,101289.27
2022-11-29T08:43:39.950Z,101293.71
2022-11-29T08:46:23.492Z,101293.80
2022-11-29T08:49:03.216Z,101288.80
2022-11-29T08:51:52.504Z,101291.97
2022-11-29T08:54:29.196Z,101287.70
2022-11-29T08:57:37.832Z,101288.00
2022-11-29T09:00:14.741Z,101286.72
2022-11-29T09:02:54.127Z,101286.91
2022-11-29T09:05:41.166Z,101286.66
2022-11-29T09:08:28.727Z,101286.28
2022-11-29T09:11:09.772Z,101285.52
2022-11-29T09:13:48.551Z,101288.39
2022-11-29T09:16:38.675Z,101286.30
2022-11-29T09:19:42.704Z,101284.23
2022-11-29T09:26:35.346Z,101284.11
2022-11-29T09:29:16.335Z,101286.09
2022-11-29T09:32:04.486Z,101282.91
2022-11-29T09:34:52.166Z,101280.53
2022-11-29T09:38:06.420Z,101274.02
2022-11-29T09:41:13.382Z,101275.67
2022-11-29T09:45:11.486Z,101280.31
2022-11-29T09:48:17.567Z,101275.48
2022-11-29T09:51:03.531Z,101280.58
2022-11-29T09:54:27.553Z,101281.05
2022-11-29T09:57:23.317Z,101278.98
2022-11-29T10:00:24.425Z,101277.31
2022-11-29T10:03:34.854Z,101274.74
2022-11-29T10:06:31.810Z,101273.69
2022-11-29T10:09:33.559Z,101274.86
2022-11-29T10:13:09.429Z,101274.59
2022-11-29T10:15:55.553Z,101269.23
2022-11-29T10:19:31.909Z,101267.27
2022-11-29T10:28:39.979Z,101265.93
2022-11-29T10:31:36.512Z,101264.36
2022-11-29T10:34:36.247Z,101267.46
2022-11-29T10:37:22.851Z,101269.33
2022-11-29T10:40:31.257Z,101267.41
2022-11-29T10:43:12.196Z,101265.82
2022-11-29T10:46:12.575Z,101265.36
2022-11-29T10:49:16.156Z,101268.48
2022-11-29T10:52:06.821Z,101271.98
2022-11-29T10:54:51.105Z,101276.41
2022-11-29T11:01:12.174Z,101282.33
2022-11-29T11:04:14.345Z,101285.36
2022-11-29T11:07:39.225Z,101284.77
2022-11-29T11:11:01.199Z,101281.71
2022-11-29T11:13:44.681Z,101282.88
2022-11-29T11:16:20.269Z,101282.07
2022-11-29T11:18:49.694Z,101277.73
2022-11-29T11:21:22.567Z,101279.99
2022-11-29T11:23:59.048Z,101281.62
2022-11-29T11:26:41.225Z,101281.86
2022-11-29T11:29:32.376Z,101281.67
2022-11-29T11:32:02.091Z,101281.53
2022-11-29T11:34:34.634Z,101287.33
2022-11-29T11:37:15.922Z,101288.10
2022-11-29T11:39:47.528Z,101285.91
2022-11-29T11:42:40.085Z,101286.88
2022-11-29T11:45:13.202Z,101289.96
2022-11-29T11:47:54.395Z,101292.93
2022-11-29T11:50:32.091Z,101294.95
2022-11-29T11:53:07.742Z,101292.12
2022-11-29T11:55:43.306Z,101295.32
2022-11-29T11:58:17.340Z,101296.26
2022-11-29T12:01:04.397Z,101295.97
2022-11-29T12:03:57.380Z,101301.38
2022-11-29T12:06:54.110Z,101299.22
2022-11-29T12:09:33.956Z,101299.08
2022-11-29T12:12:16.338Z,101301.50
2022-11-29T12:15:03.941Z,101301.03
2022-11-29T12:17:47.142Z,101299.49
2022-11-29T12:20:42.950Z,101300.29
2022-11-29T12:23:22.484Z,101303.55
2022-11-29T12:25:58.420Z,101301.84
2022-11-29T12:28:39.554Z,101301.64
2022-11-29T12:31:33.965Z,101301.77
2022-11-29T12:34:43.241Z,101305.56
2022-11-29T12:37:24.749Z,101303.39
2022-11-29T12:40:20.254Z,101302.46
2022-11-29T12:43:04.114Z,101307.33
2022-11-29T12:46:29.191Z,101313.17
2022-11-29T12:49:23.837Z,101315.38
2022-11-29T12:52:09.362Z,101315.20
2022-11-29T12:55:02.969Z,101310.21
2022-11-29T12:57:44.447Z,101309.68
2022-11-29T13:00:20.483Z,101312.82
2022-11-29T13:03:07.791Z,101313.83
2022-11-29T13:05:50.706Z,101314.42
2022-11-29T13:08:46.035Z,101318.21
2022-11-29T13:11:35.798Z,101323.34
2022-11-29T13:14:48.841Z,101323.31
2022-11-29T13:21:00.266Z,101325.54
2022-11-29T13:24:09.392Z,101329.57
2022-11-29T13:26:41.264Z,101335.96
2022-11-29T13:29:17.550Z,101336.29
2022-11-29T13:31:48.429Z,101340.91
2022-11-29T13:34:31.631Z,101343.00
2022-11-29T13:37:20.756Z,101342.39
2022-11-29T13:39:55.715Z,101346.59
2022-11-29T13:42:43.077Z,101348.48
2022-11-29T13:45:20.249Z,101351.95
2022-11-29T13:48:00.607Z,101352.77
2022-11-29T13:50:37.546Z,101352.16
2022-11-29T13:53:17.474Z,101353.84
2022-11-29T13:56:02.139Z,101354.77
2022-11-29T13:58:39.441Z,101353.42
2022-11-29T14:01:15.601Z,101355.14
2022-11-29T14:03:49.628Z,101355.27
2022-11-29T14:06:22.387Z,101353.23
2022-11-29T14:09:20.741Z,101353.45
2022-11-29T14:12:41.961Z,101354.64
2022-11-29T14:15:35.211Z,101354.58
2022-11-29T14:18:30.102Z,101354.21
2022-11-29T14:20:59.351Z,101354.48
2022-11-29T14:23:37.729Z,101352.21
2022-11-29T14:26:28.587Z,101352.55
2022-11-29T14:28:59.519Z,101353.16
2022-11-29T14:31:51.124Z,101352.71
2022-11-29T14:34:27.840Z,101350.77
2022-11-29T14:37:14.674Z,101351.02
2022-11-29T14:39:47.444Z,101347.41
2022-11-29T14:42:22.422Z,101349.42
2022-11-29T14:44:54.380Z,101354.16
2022-11-29T14:47:35.845Z,101357.60
2022-11-29T14:50:10.880Z,101356.53
2022-11-29T14:52:50.591Z,101351.69
2022-11-29T14:55:26.828Z,101352.52
2022-11-29T14:58:04.167Z,101351.85
2022-11-29T15:00:40.356Z,101353.55
2022-11-29T15:03:24.871Z,101355.84
2022-11-29T15:06:06.287Z,101354.09
2022-11-29T15:09:32.681Z,101355.02
2022-11-29T15:12:10.624Z,101360.14
2022-11-29T15:15:08.356Z,101361.63
2022-11-29T15:17:52.191Z,101364.39
2022-11-29T15:20:42.585Z,101364.33
2022-11-29T15:23:46.911Z,101367.32
2022-11-29T15:26:20.935Z,101368.19
2022-11-29T15:34:48.494Z,101371.79
2022-11-29T15:37:33.301Z,101371.72
2022-11-29T15:40:35.207Z,101374.59
2022-11-29T15:43:35.363Z,101375.77
2022-11-29T15:46:05.866Z,101375.95
2022-11-29T15:48:36.421Z,101379.44
2022-11-29T15:51:32.040Z,101381.79
2022-11-29T15:54:13.206Z,101388.27
2022-11-29T15:56:45.591Z,101389.88
2022-11-29T15:59:24.207Z,101391.17
2022-11-29T16:01:55.509Z,101390.60
2022-11-29T16:04:25.226Z,101389.28
2022-11-29T16:06:55.749Z,101392.49
2022-11-29T16:09:36.363Z,101392.39
2022-11-29T16:12:10.382Z,101391.34
2022-11-29T16:14:52.006Z,101390.88
2022-11-29T16:17:35.188Z,101387.34
2022-11-29T16:20:22.360Z,101385.95
2022-11-29T16:23:13.787Z,101387.31
2022-11-29T16:26:20.136Z,101392.77
2022-11-29T16:28:54.675Z,101394.10
2022-11-29T16:32:01.856Z,101395.44
2022-11-29T16:34:36.080Z,101398.54
2022-11-29T16:37:08.014Z,101396.73
2022-11-29T16:39:43.512Z,101397.09
2022-11-29T16:42:24.890Z,101397.43
2022-11-29T16:45:27.824Z,101400.69
2022-11-29T16:48:09.623Z,101407.86
2022-11-29T16:50:39.712Z,101405.41
2022-11-29T16:53:35.570Z,101412.13
2022-11-29T16:56:12.385Z,101413.37
2022-11-29T16:59:24.555Z,101413.17
2022-11-29T17:02:26.771Z,101414.98
2022-11-29T17:05:01.508Z,101414.40
2022-11-29T17:07:49.955Z,101420.52
2022-11-29T17:10:27.306Z,101420.37
2022-11-29T17:13:12.668Z,101419.84
2022-11-29T17:15:43.291Z,101422.07
2022-11-29T17:18:17.623Z,101421.52
2022-11-29T17:20:47.881Z,101422.73
2022-11-29T17:23:22.885Z,101428.40
2022-11-29T17:26:00.498Z,101425.98
2022-11-29T17:28:44.499Z,101427.16
2022-11-29T17:31:33.113Z,101425.11
2022-11-29T17:34:27.169Z,101427.14
2022-11-29T17:37:26.759Z,101430.73
2022-11-29T17:40:40.958Z,101436.67
2022-11-29T17:43:58.021Z,101438.63
2022-11-29T17:46:53.456Z,101435.89
2022-11-29T17:49:26.597Z,101438.84
2022-11-29T17:52:05.849Z,101436.38
2022-11-29T17:54:45.468Z,101434.14
2022-11-29T17:57:46.243Z,101436.80
2022-11-29T18:00:20.240Z,101434.08
2022-11-29T18:02:50.727Z,101436.63
2022-11-29T18:05:21.903Z,101434.31
2022-11-29T18:08:00.041Z,101433.23
2022-11-29T18:10:30.412Z,101441.38
2022-11-29T18:13:00.346Z,101437.76
2022-11-29T18:15:35.787Z,101433.29
2022-11-29T18:18:11.951Z,101437.05
2022-11-29T18:20:46.381Z,101440.34
2022-11-29T18:23:18.136Z,101441.59
2022-11-29T18:26:00.373Z,101440.39
2022-11-29T18:28:39.427Z,101439.30
2022-11-29T18:31:12.965Z,101440.86
2022-11-29T18:33:45.206Z,101442.88
2022-11-29T18:36:18.325Z,101442.37
2022-11-29T18:38:48.917Z,101443.37
2022-11-29T18:41:20.057Z,101445.55
2022-11-29T18:44:00.529Z,101443.35
2022-11-29T18:46:33.265Z,101446.65
2022-11-29T18:49:08.892Z,101446.13
2022-11-29T18:51:41.507Z,101444.92
2022-11-29T18:54:19.968Z,101443.04
2022-11-29T18:56:52.510Z,101445.41
2022-11-29T18:59:23.931Z,101444.72
2022-11-29T19:01:54.803Z,101445.42
2022-11-29T19:04:24.878Z,101444.77
2022-11-29T19:06:54.455Z,101448.84
2022-11-29T19:09:28.207Z,101453.86
2022-11-29T19:12:00.164Z,101455.86
2022-11-29T19:14:37.462Z,101460.66
2022-11-29T19:17:09.114Z,101464.55
2022-11-29T19:19:42.019Z,101466.88
2022-11-29T19:22:32.830Z,101463.29
2022-11-29T19:25:21.370Z,101466.03
2022-11-29T19:27:54.179Z,101467.05
2022-11-29T19:30:27.111Z,101464.77
2022-11-29T19:32:59.456Z,101467.18
2022-11-29T19:35:30.285Z,101472.08
2022-11-29T19:38:00.825Z,101470.30
2022-11-29T19:41:00.401Z,101467.23
2022-11-29T19:43:33.104Z,101471.42
2022-11-29T19:46:13.656Z,101479.40
2022-11-29T19:48:53.191Z,101480.81
2022-11-29T19:51:25.594Z,101480.36
2022-11-29T19:53:59.183Z,101484.87
2022-11-29T19:56:30.482Z,101484.11
2022-11-29T19:59:04.250Z,101484.68
2022-11-29T20:01:43.688Z,101481.20
2022-11-29T20:04:17.225Z,101484.33
2022-11-29T20:06:46.741Z,101483.55
2022-11-29T20:09:15.517Z,101489.08
2022-11-29T20:11:47.912Z,101485.02
2022-11-29T20:14:17.783Z,101489.44
2022-11-29T20:16:47.544Z,101491.63
2022-11-29T20:19:18.325Z,101494.52
2022-11-29T20:21:49.591Z,101498.45
2022-11-29T20:24:20.575Z,101496.39
2022-11-29T20:26:54.978Z,101499.14
2022-11-29T20:29:32.987Z,101494.52
2022-11-29T20:32:05.841Z,101498.69
2022-11-29T20:34:41.397Z,101502.81
2022-11-29T20:37:36.508Z,101500.34
2022-11-29T20:40:22.616Z,101501.29
2022-11-29T20:43:27.107Z,101498.61
2022-11-29T20:45:57.094Z,101499.64
2022-11-29T20:48:30.054Z,101501.92
2022-11-29T20:51:11.112Z,101502.57
2022-11-29T20:53:46.915Z,101506.08
2022-11-29T20:56:17.222Z,101507.83
2022-11-29T20:58:48.420Z,101506.84
2022-11-29T21:01:22.133Z,101507.27
2022-11-29T21:03:51.710Z,101507.38
2022-11-29T21:06:21.650Z,101509.77
2022-11-29T21:08:51.895Z,101510.92
2022-11-29T21:11:21.902Z,101512.11
2022-11-29T21:13:51.367Z,101512.11
2022-11-29T21:16:28.362Z,101512.63
2022-11-29T21:19:03.004Z,101513.60
2022-11-29T21:22:04.408Z,101514.88
2022-11-29T21:24:47.094Z,101511.86
2022-11-29T21:27:21.598Z,101520.08
2022-11-29T21:29:51.261Z,101519.79
2022-11-29T21:32:24.107Z,101519.64
2022-11-29T21:34:54.126Z,101522.89
2022-11-29T21:37:29.795Z,101521.41
2022-11-29T21:39:58.898Z,101519.02
2022-11-29T21:42:28.037Z,101520.02
2022-11-29T21:44:57.652Z,101522.95
2022-11-29T21:47:26.521Z,101523.01
2022-11-29T21:49:58.308Z,101526.16
2022-11-29T21:52:27.122Z,101530.63
2022-11-29T21:54:56.028Z,101532.06
2022-11-29T21:57:28.690Z,101533.44
2022-11-29T21:59:58.254Z,101528.40
2022-11-29T22:02:27.169Z,101532.86
2022-11-29T22:04:55.813Z,101533.98
2022-11-29T22:07:24.840Z,101534.91
2022-11-29T22:09:54.124Z,101533.55
2022-11-29T22:12:38.279Z,101536.35
2022-11-29T22:15:09.009Z,101534.91
2022-11-29T22:17:37.979Z,101540.34
2022-11-29T22:20:08.174Z,101541.82
2022-11-29T22:22:37.136Z,101543.21
2022-11-29T22:25:06.969Z,101542.92
2022-11-29T22:27:36.132Z,101544.67
2022-11-29T22:30:05.143Z,101548.63
2022-11-29T22:32:34.909Z,101547.77
2022-11-29T22:35:04.517Z,101546.73
2022-11-29T22:37:33.564Z,101547.54
2022-11-29T22:40:02.608Z,101545.88
2022-11-29T22:42:34.046Z,101547.16
2022-11-29T22:45:05.877Z,101547.95
2022-11-29T22:47:35.137Z,101545.30
2022-11-29T22:50:05.144Z,101539.85
2022-11-29T22:52:34.533Z,101537.02
2022-11-29T22:55:05.260Z,101533.39
2022-11-29T22:57:34.862Z,101530.98
2022-11-29T23:00:05.929Z,101533.42
2022-11-29T23:02:35.051Z,101532.70
2022-11-29T23:05:04.608Z,101536.61
2022-11-29T23:07:34.387Z,101536.23
2022-11-29T23:10:04.463Z,101534.92
2022-11-29T23:12:33.358Z,101532.19
2022-11-29T23:15:04.019Z,101528.71
2022-11-29T23:17:32.638Z,101526.16
2022-11-29T23:20:01.660Z,101520.41
2022-11-29T23:22:32.097Z,101512.36
2022-11-29T23:25:01.151Z,101516.09
2022-11-29T23:27:30.589Z,101516.63
2022-11-29T23:29:59.878Z,101519.05
2022-11-29T23:32:31.445Z,101517.34
2022-11-29T23:35:00.806Z,101516.96
2022-11-29T23:37:29.723Z,101517.48
2022-11-29T23:39:58.996Z,101518.96
2022-11-29T23:42:28.366Z,101517.42
2022-11-29T23:44:57.829Z,101511.38
2022-11-29T23:47:27.350Z,101509.23
2022-11-29T23:49:56.750Z,101505.23
2022-11-29T23:52:26.226Z,101504.20
2022-11-29T23:54:55.136Z,101508.44
2022-11-29T23:57:24.285Z,101508.79
2022-11-29T23:59:53.849Z,101508.64
